Time;durP1;ratioP1;P1;durP2;ratioP2;P2;SDS_P1;SDS_P2;PMS_P1;PMS_P2;Temp;Humidity;BMP_temperature;BMP_pressure;BME280_temperature;BME280_humidity;BME280_pressure;Samples;Min_cycle;Max_cycle;Signal;HPM_P1;HPM_P2
2021/09/11 00:00:19;;;;;;;5.38;4.97;;;20.70;99.90;;;;;;2630974;47;20142;-80
2021/09/11 00:02:50;;;;;;;6.07;4.68;;;20.70;99.90;;;;;;2630658;47;20156;-80
2021/09/11 00:05:19;;;;;;;5.65;5.18;;;20.70;99.90;;;;;;2630914;54;20149;-79
2021/09/11 00:07:48;;;;;;;6.00;5.47;;;20.70;99.90;;;;;;2631009;47;20153;-79
2021/09/11 00:10:17;;;;;;;5.55;5.05;;;20.70;99.90;;;;;;2631043;47;20132;-79
2021/09/11 00:12:48;;;;;;;5.88;5.25;;;20.60;99.90;;;;;;2631008;47;20201;-79
2021/09/11 00:15:19;;;;;;;6.03;5.55;;;20.60;99.90;;;;;;2630839;54;20133;-79
2021/09/11 00:17:51;;;;;;;7.15;6.55;;;20.70;99.90;;;;;;2630977;54;20169;-79
2021/09/11 00:20:20;;;;;;;6.07;5.50;;;20.80;99.90;;;;;;2631114;47;20153;-79
2021/09/11 00:22:49;;;;;;;9.05;8.25;;;20.90;99.90;;;;;;2631049;46;20136;-78
2021/09/11 00:25:18;;;;;;;8.70;7.20;;;21.00;99.90;;;;;;2631138;46;20213;-79
2021/09/11 00:27:59;;;;;;;10.63;7.35;;;21.20;99.90;;;;;;2633664;39;20381;-78
2021/09/11 00:30:27;;;;;;;8.60;7.78;;;21.00;99.90;;;;;;2630931;47;20177;-78
2021/09/11 00:32:56;;;;;;;8.68;7.88;;;21.00;99.90;;;;;;2630662;47;20922;-78
2021/09/11 00:35:25;;;;;;;7.93;7.32;;;21.00;99.90;;;;;;2630786;54;20149;-81
2021/09/11 00:37:54;;;;;;;9.05;8.15;;;21.00;99.90;;;;;;2630788;47;20181;-79
2021/09/11 00:40:22;;;;;;;8.48;7.22;;;20.90;99.90;;;;;;2633036;39;20758;-79
2021/09/11 00:42:51;;;;;;;8.82;8.02;;;20.70;99.90;;;;;;2630980;47;20141;-79
2021/09/11 00:45:25;;;;;;;7.50;6.70;;;20.80;99.90;;;;;;2630737;47;20148;-78
2021/09/11 00:47:54;;;;;;;8.27;6.15;;;20.60;99.90;;;;;;2630896;47;20183;-79
2021/09/11 00:50:23;;;;;;;7.10;6.50;;;20.60;99.90;;;;;;2630857;47;20150;-78
2021/09/11 00:52:52;;;;;;;7.72;7.03;;;20.60;99.90;;;;;;2630942;47;20908;-80
2021/09/11 00:55:21;;;;;;;8.23;7.47;;;20.60;99.90;;;;;;2630616;54;20168;-80
2021/09/11 00:57:51;;;;;;;6.88;6.22;;;20.60;99.90;;;;;;2630833;47;20168;-79
2021/09/11 01:00:23;;;;;;;7.13;5.85;;;20.50;99.90;;;;;;2630734;47;20145;-79
2021/09/11 01:02:52;;;;;;;5.68;5.18;;;20.30;99.90;;;;;;2630806;47;20132;-80
2021/09/11 01:05:21;;;;;;;9.02;6.85;;;20.30;99.90;;;;;;2630715;47;20145;-79
2021/09/11 01:07:49;;;;;;;6.75;6.00;;;20.20;99.90;;;;;;2630618;54;20161;-80
2021/09/11 01:10:18;;;;;;;6.50;6.00;;;20.20;99.90;;;;;;2630818;47;20904;-79
2021/09/11 01:12:48;;;;;;;8.10;7.30;;;20.20;99.90;;;;;;2630992;47;20137;-79
2021/09/11 01:15:17;;;;;;;8.02;7.38;;;20.50;99.90;;;;;;2631343;46;20125;-79
2021/09/11 01:17:48;;;;;;;7.88;7.28;;;20.50;99.90;;;;;;2631570;47;21017;-80
2021/09/11 01:20:17;;;;;;;9.10;8.38;;;20.40;99.90;;;;;;2631720;47;20186;-81
2021/09/11 01:22:45;;;;;;;9.23;8.43;;;20.30;99.90;;;;;;2631514;54;20957;-80
2021/09/11 01:25:17;;;;;;;8.60;7.78;;;20.20;99.90;;;;;;2631382;47;20427;-80
2021/09/11 01:27:46;;;;;;;8.85;8.05;;;20.30;99.90;;;;;;2631486;47;20148;-78
2021/09/11 01:30:17;;;;;;;9.73;8.82;;;20.30;99.90;;;;;;2631288;47;20197;-78
2021/09/11 01:32:46;;;;;;;9.15;8.45;;;20.40;99.90;;;;;;2631566;47;20130;-80
2021/09/11 01:35:15;;;;;;;9.05;8.35;;;20.30;99.90;;;;;;2631379;47;20180;-79
2021/09/11 01:37:44;;;;;;;11.32;10.38;;;20.30;99.90;;;;;;2631477;47;20173;-80
2021/09/11 01:40:13;;;;;;;10.05;9.25;;;20.30;99.90;;;;;;2631268;47;20140;-80
2021/09/11 01:42:45;;;;;;;12.68;11.48;;;20.30;99.90;;;;;;2631518;46;20185;-80
2021/09/11 01:45:16;;;;;;;10.02;9.23;;;20.20;99.90;;;;;;2631132;54;20140;-79
2021/09/11 01:47:45;;;;;;;10.52;9.55;;;20.10;99.90;;;;;;2631297;47;20228;-80
2021/09/11 01:50:16;;;;;;;12.27;11.02;;;20.00;99.90;;;;;;2631370;54;20142;-80
2021/09/11 01:52:45;;;;;;;10.88;9.88;;;20.10;99.90;;;;;;2631577;46;20141;-79
2021/09/11 01:55:15;;;;;;;11.45;10.32;;;19.90;99.90;;;;;;2631164;54;20149;-80
2021/09/11 01:57:48;;;;;;;12.07;10.00;;;19.90;99.90;;;;;;2631494;46;20164;-79
2021/09/11 02:00:18;;;;;;;10.43;9.35;;;19.80;99.90;;;;;;2631108;47;20184;-79
2021/09/11 02:02:47;;;;;;;11.65;10.55;;;19.80;99.90;;;;;;2631362;47;20150;-79
2021/09/11 02:05:17;;;;;;;9.73;8.93;;;19.80;99.90;;;;;;2631185;47;20177;-80
2021/09/11 02:07:46;;;;;;;11.63;10.40;;;19.60;99.90;;;;;;2631080;46;20160;-80
2021/09/11 02:10:17;;;;;;;10.90;10.00;;;19.50;99.90;;;;;;2631159;54;20145;-79
2021/09/11 02:12:49;;;;;;;13.40;11.30;;;19.50;99.90;;;;;;2631529;46;20133;-80
2021/09/11 02:15:17;;;;;;;9.88;9.07;;;19.50;99.90;;;;;;2631018;46;20188;-80
2021/09/11 02:17:47;;;;;;;10.25;9.35;;;19.60;99.90;;;;;;2631337;54;20157;-81
2021/09/11 02:20:16;;;;;;;12.00;10.98;;;19.60;99.90;;;;;;2630396;46;20145;-80
2021/09/11 02:22:45;;;;;;;12.23;11.23;;;19.60;99.90;;;;;;2631195;47;20175;-81
2021/09/11 02:25:14;;;;;;;12.35;11.32;;;19.60;99.90;;;;;;2630984;54;20134;-80
2021/09/11 02:27:42;;;;;;;14.70;13.40;;;19.70;99.90;;;;;;2631396;47;20216;-80
2021/09/11 02:30:15;;;;;;;17.33;15.82;;;19.90;99.90;;;;;;2631246;54;20189;-80
2021/09/11 02:32:43;;;;;;;19.05;17.30;;;20.20;99.90;;;;;;2631443;47;20140;-80
2021/09/11 02:35:12;;;;;;;20.67;18.67;;;20.00;99.90;;;;;;2631222;54;20141;-79
2021/09/11 02:37:41;;;;;;;22.10;20.08;;;19.90;99.90;;;;;;2631355;47;20184;-80
2021/09/11 02:40:11;;;;;;;23.80;21.50;;;19.80;99.90;;;;;;2631261;47;20182;-81
2021/09/11 02:42:40;;;;;;;21.50;19.33;;;19.60;99.90;;;;;;2631275;54;20130;-79
2021/09/11 02:45:11;;;;;;;23.40;21.20;;;19.80;99.90;;;;;;2631113;47;20156;-80
2021/09/11 02:47:42;;;;;;;23.73;21.42;;;19.70;99.90;;;;;;2631325;46;20225;-79
2021/09/11 02:50:11;;;;;;;26.85;21.90;;;19.70;99.90;;;;;;2631311;47;20181;-81
2021/09/11 02:52:40;;;;;;;23.30;20.95;;;19.70;99.90;;;;;;2631293;47;20138;-81
2021/09/11 02:55:11;;;;;;;23.35;21.15;;;19.70;99.90;;;;;;2630929;54;20205;-79
2021/09/11 02:57:40;;;;;;;23.30;20.98;;;19.70;99.90;;;;;;2631051;54;20192;-79
2021/09/11 03:00:10;;;;;;;24.15;21.65;;;19.60;99.90;;;;;;2630978;47;20185;-79
2021/09/11 03:02:41;;;;;;;24.52;22.15;;;19.70;99.90;;;;;;2630972;46;20167;-80
2021/09/11 03:05:11;;;;;;;25.40;22.77;;;19.70;99.90;;;;;;2631163;47;20157;-81
2021/09/11 03:07:40;;;;;;;26.50;23.90;;;19.60;99.90;;;;;;2631195;47;20173;-80
2021/09/11 03:10:10;;;;;;;27.55;24.70;;;19.70;99.90;;;;;;2631197;47;20146;-79
2021/09/11 03:12:39;;;;;;;26.55;23.75;;;19.80;99.90;;;;;;2631325;54;20145;-80
2021/09/11 03:15:09;;;;;;;24.65;22.02;;;19.80;99.90;;;;;;2631122;47;20201;-80
2021/09/11 03:17:38;;;;;;;29.50;26.42;;;19.70;99.90;;;;;;2631119;54;20239;-80
2021/09/11 03:20:11;;;;;;;30.08;26.92;;;19.60;99.90;;;;;;2631152;47;20141;-80
2021/09/11 03:22:39;;;;;;;30.45;27.27;;;19.40;99.90;;;;;;2631165;46;20150;-80
2021/09/11 03:25:09;;;;;;;30.88;27.52;;;19.10;99.90;;;;;;2630751;46;20152;-80
2021/09/11 03:27:37;;;;;;;32.20;27.33;;;19.00;99.90;;;;;;2630987;47;20173;-79
2021/09/11 03:30:08;;;;;;;37.83;30.77;;;19.00;99.90;;;;;;2631097;54;20201;-79
2021/09/11 03:32:36;;;;;;;33.70;30.05;;;19.00;99.90;;;;;;2630954;47;20148;-78
2021/09/11 03:35:08;;;;;;;40.38;31.77;;;19.00;99.90;;;;;;2630920;54;20130;-79
2021/09/11 03:37:37;;;;;;;36.50;30.92;;;19.00;99.90;;;;;;2631134;54;20184;-78
2021/09/11 03:40:07;;;;;;;36.08;31.15;;;19.10;99.90;;;;;;2631076;54;20168;-79
2021/09/11 03:42:36;;;;;;;37.35;31.98;;;19.10;99.90;;;;;;2631076;54;20143;-79
2021/09/11 03:45:06;;;;;;;39.33;34.08;;;19.00;99.90;;;;;;2630655;54;20157;-79
2021/09/11 03:47:34;;;;;;;37.80;31.10;;;18.90;99.90;;;;;;2630200;47;20150;-80
2021/09/11 03:50:03;;;;;;;36.85;32.50;;;18.80;99.90;;;;;;2630717;47;20149;-78
2021/09/11 03:52:36;;;;;;;36.58;32.47;;;19.00;99.90;;;;;;2631062;47;20194;-78
2021/09/11 03:55:05;;;;;;;32.67;28.80;;;19.00;99.90;;;;;;2630928;54;20168;-77
2021/09/11 03:57:34;;;;;;;38.63;30.92;;;19.00;99.90;;;;;;2630720;46;20173;-80
2021/09/11 04:00:02;;;;;;;34.53;30.75;;;19.00;99.90;;;;;;2631009;47;20153;-78
2021/09/11 04:02:40;;;;;;;39.20;32.70;;;19.00;99.90;;;;;;2631093;47;20136;-79
2021/09/11 04:05:09;;;;;;;43.78;35.33;;;19.20;99.90;;;;;;2630829;47;20137;-80
2021/09/11 04:07:41;;;;;;;40.72;33.60;;;19.20;99.90;;;;;;2630906;54;20158;-79
2021/09/11 04:10:10;;;;;;;41.67;33.58;;;19.20;99.90;;;;;;2631058;47;20821;-80
2021/09/11 04:12:39;;;;;;;43.38;34.35;;;19.10;99.90;;;;;;2631149;47;20911;-79
2021/09/11 04:15:09;;;;;;;40.40;32.70;;;19.10;99.90;;;;;;2630850;47;20132;-79
2021/09/11 04:17:38;;;;;;;35.20;28.17;;;19.00;99.90;;;;;;2630668;47;20161;-81
2021/09/11 04:20:09;;;;;;;29.20;24.90;;;19.00;99.90;;;;;;2631051;47;20148;-78
2021/09/11 04:22:37;;;;;;;34.10;29.55;;;18.90;99.90;;;;;;2630946;47;20145;-78
2021/09/11 04:25:10;;;;;;;31.10;27.45;;;19.00;99.90;;;;;;2630697;54;20130;-78
2021/09/11 04:27:38;;;;;;;30.95;25.73;;;19.00;99.90;;;;;;2634556;39;20804;-80
2021/09/11 04:30:09;;;;;;;28.50;25.50;;;19.00;99.90;;;;;;2631005;47;20138;-78
2021/09/11 04:32:37;;;;;;;30.33;24.90;;;19.10;99.90;;;;;;2631453;39;20831;-80
2021/09/11 04:35:08;;;;;;;33.22;28.05;;;19.10;99.90;;;;;;2630618;47;20138;-79
2021/09/11 04:37:36;;;;;;;27.05;23.98;;;19.20;99.90;;;;;;2637709;39;20880;-79
2021/09/11 04:40:09;;;;;;;23.83;21.27;;;19.20;99.90;;;;;;2634713;39;20749;-79
2021/09/11 04:42:39;;;;;;;24.33;21.45;;;19.30;99.90;;;;;;2630942;47;20135;-79
2021/09/11 04:45:09;;;;;;;25.80;23.10;;;19.40;99.90;;;;;;2630634;47;20129;-79
2021/09/11 04:47:38;;;;;;;31.38;25.13;;;19.40;99.90;;;;;;2633562;39;20894;-80
2021/09/11 04:50:08;;;;;;;25.63;22.52;;;19.40;99.90;;;;;;2649354;39;20925;-79
2021/09/11 04:52:37;;;;;;;26.05;22.70;;;19.50;99.90;;;;;;2631344;47;20137;-80
2021/09/11 04:55:10;;;;;;;27.15;23.92;;;19.40;99.90;;;;;;2631702;47;20915;-81
2021/09/11 04:57:39;;;;;;;25.88;23.13;;;19.40;99.90;;;;;;2631797;47;20511;-82
2021/09/11 05:00:10;;;;;;;25.85;22.85;;;19.40;99.90;;;;;;2631764;47;20285;-80
2021/09/11 05:02:39;;;;;;;23.05;20.55;;;19.20;99.90;;;;;;2631540;54;20260;-80
2021/09/11 05:05:09;;;;;;;23.38;20.95;;;19.40;99.90;;;;;;2631570;54;20181;-81
2021/09/11 05:07:38;;;;;;;25.92;23.23;;;19.40;99.90;;;;;;2634967;46;20181;-80
2021/09/11 05:10:11;;;;;;;23.08;20.15;;;19.60;99.90;;;;;;2631590;54;20189;-81
2021/09/11 05:12:39;;;;;;;19.92;17.27;;;19.50;99.90;;;;;;2631680;46;20209;-82
2021/09/11 05:15:09;;;;;;;21.48;19.17;;;19.40;99.90;;;;;;2631345;47;20156;-81
2021/09/11 05:17:37;;;;;;;17.80;16.00;;;19.40;99.90;;;;;;2631391;47;20161;-80
2021/09/11 05:20:08;;;;;;;20.45;16.30;;;19.30;99.90;;;;;;2631648;54;20134;-80
2021/09/11 05:22:36;;;;;;;18.60;16.30;;;19.30;99.90;;;;;;2631649;46;20142;-81
2021/09/11 05:25:11;;;;;;;17.27;15.43;;;19.30;99.90;;;;;;2631453;54;20193;-80
2021/09/11 05:27:40;;;;;;;18.45;14.65;;;19.40;99.90;;;;;;2631581;47;20191;-80
2021/09/11 05:30:10;;;;;;;17.50;14.93;;;19.30;99.90;;;;;;2631641;54;20140;-81
2021/09/11 05:32:39;;;;;;;15.52;13.93;;;19.30;99.90;;;;;;2631422;54;20301;-80
2021/09/11 05:35:09;;;;;;;15.52;13.93;;;19.30;99.90;;;;;;2631401;47;20193;-79
2021/09/11 05:37:38;;;;;;;15.13;13.55;;;19.30;99.90;;;;;;2631617;46;20157;-79
2021/09/11 05:40:11;;;;;;;15.57;13.13;;;19.40;99.90;;;;;;2631657;54;20182;-81
2021/09/11 05:42:40;;;;;;;17.13;14.07;;;19.50;99.90;;;;;;2631626;54;20158;-79
2021/09/11 05:45:09;;;;;;;13.73;12.38;;;19.60;99.90;;;;;;2631367;51;20185;-82
2021/09/11 05:47:39;;;;;;;16.13;12.48;;;19.70;99.90;;;;;;2631612;47;20209;-80
2021/09/11 05:50:10;;;;;;;13.68;12.13;;;19.80;99.90;;;;;;2631340;47;20157;-82
2021/09/11 05:52:39;;;;;;;11.80;10.70;;;19.90;99.90;;;;;;2631615;54;20176;-80
2021/09/11 05:55:11;;;;;;;11.68;9.73;;;19.90;99.90;;;;;;2631351;47;20130;-79
2021/09/11 05:57:40;;;;;;;12.25;9.52;;;20.00;99.90;;;;;;2631589;54;20191;-80
2021/09/11 06:00:09;;;;;;;11.77;10.63;;;20.10;99.90;;;;;;2631166;47;20153;-82
2021/09/11 06:02:41;;;;;;;12.20;11.00;;;20.20;99.90;;;;;;2631455;54;20137;-82
2021/09/11 06:05:10;;;;;;;14.35;10.60;;;20.20;99.90;;;;;;2631383;46;20153;-81
2021/09/11 06:07:40;;;;;;;10.82;9.73;;;20.00;99.90;;;;;;2631561;54;20156;-81
2021/09/11 06:10:13;;;;;;;10.43;9.43;;;20.10;99.90;;;;;;2631522;47;20141;-83
2021/09/11 06:12:42;;;;;;;11.63;10.02;;;20.20;99.90;;;;;;2631601;47;20130;-82
2021/09/11 06:15:12;;;;;;;11.02;9.75;;;20.20;99.90;;;;;;2631074;47;20140;-82
2021/09/11 06:17:41;;;;;;;11.45;10.35;;;20.40;99.90;;;;;;2631630;47;20145;-81
2021/09/11 06:20:11;;;;;;;9.93;9.02;;;20.30;99.90;;;;;;2631471;47;20141;-80
2021/09/11 06:22:40;;;;;;;11.50;10.43;;;20.40;99.90;;;;;;2631477;46;20132;-80
2021/09/11 06:25:13;;;;;;;10.65;9.55;;;20.50;99.90;;;;;;2631319;54;20213;-82
2021/09/11 06:27:43;;;;;;;10.27;9.20;;;20.40;99.90;;;;;;2631302;47;20307;-82
2021/09/11 06:30:13;;;;;;;10.90;9.90;;;20.50;99.90;;;;;;2631251;54;20149;-81
2021/09/11 06:32:42;;;;;;;11.73;10.63;;;20.50;99.90;;;;;;2631591;46;20197;-82
2021/09/11 06:35:11;;;;;;;12.07;10.45;;;20.40;99.90;;;;;;2631380;54;20150;-82
2021/09/11 06:37:40;;;;;;;13.90;12.50;;;20.20;99.90;;;;;;2630978;47;20192;-80
2021/09/11 06:40:13;;;;;;;13.73;12.43;;;20.40;99.90;;;;;;2631080;47;20190;-80
2021/09/11 06:42:42;;;;;;;15.48;13.98;;;20.50;99.90;;;;;;2630675;47;20153;-77
2021/09/11 06:45:11;;;;;;;16.15;14.60;;;20.50;99.90;;;;;;2630960;54;20174;-77
2021/09/11 06:47:40;;;;;;;16.50;13.88;;;20.70;99.90;;;;;;2631148;46;20183;-78
2021/09/11 06:50:09;;;;;;;15.98;14.57;;;20.70;99.90;;;;;;2631144;54;20197;-78
2021/09/11 06:52:38;;;;;;;19.73;17.83;;;20.70;99.90;;;;;;2631056;47;20846;-77
2021/09/11 06:55:08;;;;;;;19.55;15.88;;;20.50;99.90;;;;;;2630941;47;20308;-78
2021/09/11 06:57:39;;;;;;;17.40;15.65;;;20.40;99.90;;;;;;2631109;46;20176;-76
2021/09/11 07:00:09;;;;;;;16.38;14.88;;;20.40;99.90;;;;;;2631115;47;20153;-77
2021/09/11 07:02:38;;;;;;;16.80;14.25;;;20.30;99.90;;;;;;2631142;54;20140;-78
2021/09/11 07:05:08;;;;;;;16.88;15.07;;;20.30;99.90;;;;;;2630977;47;20148;-78
2021/09/11 07:07:37;;;;;;;21.15;16.70;;;20.30;99.90;;;;;;2633384;39;20834;-77
2021/09/11 07:10:08;;;;;;;19.83;16.23;;;20.20;99.90;;;;;;2630935;47;20213;-79
2021/09/11 07:12:39;;;;;;;20.35;18.25;;;20.20;99.90;;;;;;2635969;39;20724;-79
2021/09/11 07:15:09;;;;;;;19.80;17.60;;;20.20;99.90;;;;;;2631018;54;20165;-78
2021/09/11 07:17:39;;;;;;;21.00;18.90;;;20.40;99.90;;;;;;2631050;47;20208;-79
2021/09/11 07:20:09;;;;;;;21.95;17.83;;;20.60;99.90;;;;;;2631148;54;20152;-78
2021/09/11 07:22:38;;;;;;;25.17;20.77;;;20.50;99.90;;;;;;2631242;46;20178;-79
2021/09/11 07:25:08;;;;;;;18.63;16.45;;;20.60;99.90;;;;;;2630389;54;20180;-80
2021/09/11 07:27:39;;;;;;;20.85;17.75;;;20.70;99.90;;;;;;2630224;47;20164;-79
2021/09/11 07:30:10;;;;;;;20.38;18.27;;;21.00;99.90;;;;;;2630514;47;20151;-80
2021/09/11 07:32:38;;;;;;;18.58;16.75;;;21.10;99.90;;;;;;2630448;54;20156;-80
2021/09/11 07:35:09;;;;;;;20.45;16.17;;;21.10;99.90;;;;;;2630313;54;20176;-80
2021/09/11 07:37:38;;;;;;;19.90;17.83;;;21.30;99.90;;;;;;2630464;47;20169;-79
2021/09/11 07:40:08;;;;;;;19.02;17.00;;;21.30;99.90;;;;;;2631016;47;20126;-79
2021/09/11 07:42:39;;;;;;;18.92;17.10;;;21.50;99.90;;;;;;2631051;47;20136;-80
2021/09/11 07:45:12;;;;;;;20.08;18.15;;;21.50;99.90;;;;;;2630913;47;20185;-79
2021/09/11 07:47:41;;;;;;;19.98;17.95;;;21.30;99.90;;;;;;2630992;54;20200;-80
2021/09/11 07:50:11;;;;;;;19.80;17.80;;;21.30;99.90;;;;;;2631133;47;20149;-80
2021/09/11 07:52:40;;;;;;;18.98;16.88;;;21.30;99.90;;;;;;2631079;46;20137;-79
2021/09/11 07:55:10;;;;;;;18.15;16.23;;;21.20;99.90;;;;;;2630931;54;20160;-79
2021/09/11 07:57:42;;;;;;;20.48;15.85;;;21.10;99.90;;;;;;2631066;47;20168;-79
2021/09/11 08:00:12;;;;;;;16.85;15.07;;;21.20;99.90;;;;;;2631052;47;20141;-78
2021/09/11 08:02:41;;;;;;;20.25;17.05;;;21.20;99.90;;;;;;2639747;39;20934;-81
2021/09/11 08:05:10;;;;;;;18.38;15.73;;;21.20;99.90;;;;;;2630819;47;20205;-80
2021/09/11 08:07:39;;;;;;;16.63;15.02;;;21.20;99.90;;;;;;2630702;54;20205;-79
2021/09/11 08:10:09;;;;;;;18.50;15.77;;;21.20;99.90;;;;;;2630994;47;20152;-79
2021/09/11 08:12:38;;;;;;;17.10;15.43;;;21.10;99.90;;;;;;2631043;47;20926;-79
2021/09/11 08:15:11;;;;;;;16.58;14.90;;;21.10;99.90;;;;;;2630689;47;20134;-79
2021/09/11 08:17:40;;;;;;;18.10;15.88;;;21.00;99.90;;;;;;2630919;47;20161;-79
2021/09/11 08:20:09;;;;;;;16.42;14.70;;;21.10;99.90;;;;;;2630912;47;20136;-79
2021/09/11 08:22:38;;;;;;;16.70;15.05;;;21.10;99.90;;;;;;2630612;54;20145;-80
2021/09/11 08:25:09;;;;;;;16.38;14.65;;;21.20;99.90;;;;;;2630833;54;20157;-80
2021/09/11 08:27:38;;;;;;;14.70;13.38;;;21.30;99.90;;;;;;2630985;47;20168;-80
2021/09/11 08:30:11;;;;;;;16.40;14.82;;;21.50;99.90;;;;;;2630938;47;20149;-80
2021/09/11 08:32:40;;;;;;;15.82;14.23;;;21.60;99.90;;;;;;2630977;47;20197;-81
2021/09/11 08:35:13;;;;;;;17.52;15.85;;;21.80;99.90;;;;;;2630839;47;20149;-81
2021/09/11 08:37:41;;;;;;;17.88;16.08;;;21.70;99.90;;;;;;2630896;47;20175;-80
2021/09/11 08:40:12;;;;;;;17.83;16.10;;;21.80;99.90;;;;;;2630905;47;20132;-80
2021/09/11 08:42:41;;;;;;;16.80;15.20;;;21.80;99.90;;;;;;2630769;47;20157;-81
2021/09/11 08:45:15;;;;;;;15.20;13.68;;;21.80;99.90;;;;;;2630723;54;20153;-81
2021/09/11 08:47:46;;;;;;;18.00;16.08;;;21.80;99.90;;;;;;2630830;47;20196;-80
2021/09/11 08:50:16;;;;;;;17.30;15.73;;;21.90;99.90;;;;;;2630634;47;20149;-81
2021/09/11 08:52:46;;;;;;;16.90;15.23;;;21.80;99.90;;;;;;2630907;54;20129;-81
2021/09/11 08:55:16;;;;;;;17.38;15.60;;;21.80;99.90;;;;;;2630635;47;20138;-80
2021/09/11 08:57:59;;;;;;;15.25;13.85;;;21.70;99.90;;;;;;2630740;47;20157;-81
2021/09/11 09:00:48;;;;;;;14.82;13.35;;;21.60;99.90;;;;;;2630856;54;20137;-79
2021/09/11 09:03:36;;;;;;;18.67;13.98;;;21.80;99.90;;;;;;2630677;47;20149;-80
2021/09/11 09:06:28;;;;;;;15.02;13.63;;;21.80;99.90;;;;;;2630801;47;20153;-80
2021/09/11 09:09:06;;;;;;;14.55;13.25;;;21.60;99.90;;;;;;2630488;54;20224;-80
2021/09/11 09:11:37;;;;;;;14.43;12.48;;;21.50;99.90;;;;;;2630631;47;20145;-81
2021/09/11 09:14:07;;;;;;;13.20;12.00;;;21.70;99.90;;;;;;2630639;47;20149;-80
2021/09/11 09:16:40;;;;;;;13.10;11.90;;;21.80;99.90;;;;;;2630610;47;20126;-81
2021/09/11 09:19:16;;;;;;;14.65;13.23;;;21.70;99.90;;;;;;2630791;47;20145;-80
2021/09/11 09:21:47;;;;;;;12.90;11.65;;;21.80;99.90;;;;;;2630766;47;20144;-81
2021/09/11 09:24:30;;;;;;;14.43;13.00;;;21.80;99.90;;;;;;2630589;54;20149;-81
2021/09/11 09:27:02;;;;;;;14.98;12.13;;;22.20;99.90;;;;;;2630828;47;20193;-81
2021/09/11 09:29:31;;;;;;;14.05;12.75;;;22.50;99.90;;;;;;2637292;39;20790;-81
2021/09/11 09:32:03;;;;;;;12.65;11.45;;;22.70;99.90;;;;;;2630674;54;20140;-81
2021/09/11 09:34:34;;;;;;;12.38;11.18;;;23.00;99.90;;;;;;2631003;47;20137;-82
2021/09/11 09:37:06;;;;;;;12.00;11.00;;;23.10;99.90;;;;;;2631467;47;20156;-81
2021/09/11 09:39:41;;;;;;;13.15;11.05;;;23.10;99.90;;;;;;2631523;47;20153;-82
2021/09/11 09:42:12;;;;;;;10.90;9.65;;;23.10;99.90;;;;;;2631606;47;20165;-81
2021/09/11 09:44:46;;;;;;;13.00;11.75;;;23.00;99.90;;;;;;2631296;46;20125;-78
2021/09/11 09:47:20;;;;;;;14.15;12.85;;;23.00;99.90;;;;;;2631480;54;20134;-80
2021/09/11 09:50:07;;;;;;;16.60;15.00;;;22.80;99.90;;;;;;2631588;46;20134;-78
2021/09/11 09:52:36;;;;;;;17.45;15.38;;;22.60;99.90;;;;;;2631574;54;20168;-79
2021/09/11 09:55:06;;;;;;;17.63;15.85;;;22.20;99.90;;;;;;2635830;39;20815;-80
2021/09/11 09:57:35;;;;;;;16.60;14.98;;;22.10;99.90;;;;;;2631430;54;20157;-79
2021/09/11 10:00:05;;;;;;;16.20;14.77;;;22.30;99.90;;;;;;2631401;54;20321;-79
2021/09/11 10:02:37;;;;;;;15.73;14.23;;;22.20;99.90;;;;;;2631543;54;20141;-80
2021/09/11 10:05:07;;;;;;;15.45;13.88;;;22.40;99.90;;;;;;2631351;46;20201;-80
2021/09/11 10:07:35;;;;;;;16.35;14.85;;;22.70;99.90;;;;;;2630711;47;20164;-82
2021/09/11 10:10:04;;;;;;;17.15;15.55;;;22.80;99.90;;;;;;2631416;47;20132;-80
2021/09/11 10:12:39;;;;;;;15.60;14.05;;;23.10;99.90;;;;;;2631361;47;20148;-79
2021/09/11 10:15:26;;;;;;;16.33;14.73;;;23.20;99.90;;;;;;2631244;46;20133;-80
2021/09/11 10:17:59;;;;;;;15.07;13.68;;;23.40;99.90;;;;;;2631508;46;20141;-79
2021/09/11 10:20:28;;;;;;;16.30;14.80;;;23.80;99.90;;;;;;2631396;46;20141;-81
2021/09/11 10:23:07;;;;;;;14.23;12.93;;;23.80;99.90;;;;;;2631253;54;20201;-80
2021/09/11 10:25:44;;;;;;;13.73;12.60;;;24.00;99.90;;;;;;2631316;46;20161;-80
2021/09/11 10:28:15;;;;;;;14.35;13.05;;;24.20;99.90;;;;;;2631340;47;20145;-80
2021/09/11 10:31:08;;;;;;;13.70;12.40;;;24.20;99.90;;;;;;2631225;47;20486;-81
2021/09/11 10:33:45;;;;;;;14.40;13.02;;;24.10;99.90;;;;;;2631350;47;20174;-80
2021/09/11 10:36:19;;;;;;;14.73;13.35;;;23.70;99.90;;;;;;2631174;46;20129;-79
2021/09/11 10:38:51;;;;;;;15.20;13.68;;;23.60;99.90;;;;;;2631018;54;20156;-79
2021/09/11 10:41:20;;;;;;;12.73;11.63;;;23.40;99.90;;;;;;2631271;54;20130;-80
2021/09/11 10:44:05;;;;;;;15.65;14.00;;;23.10;99.90;;;;;;2631108;47;20197;-79
2021/09/11 10:46:48;;;;;;;16.20;14.77;;;23.10;99.90;;;;;;2631089;46;20129;-78
2021/09/11 10:49:35;;;;;;;15.90;14.07;;;23.10;99.90;;;;;;2631189;47;20159;-80
2021/09/11 10:52:06;;;;;;;14.60;13.30;;;23.30;99.90;;;;;;2631120;47;20162;-79
2021/09/11 10:54:39;;;;;;;13.75;12.48;;;23.50;99.90;;;;;;2631127;46;20897;-78
2021/09/11 10:57:18;;;;;;;14.18;12.88;;;23.80;99.90;;;;;;2631231;54;20149;-80
2021/09/11 10:59:47;;;;;;;13.95;12.50;;;24.00;99.90;;;;;;2631322;47;20181;-80
2021/09/11 11:02:39;;;;;;;14.30;10.18;;;23.90;99.90;;;;;;2631346;46;20915;-80
2021/09/11 11:05:12;;;;;;;11.02;10.13;;;23.90;99.90;;;;;;2630895;54;20137;-81
2021/09/11 11:07:47;;;;;;;10.27;9.38;;;23.70;99.90;;;;;;2631093;54;20185;-79
2021/09/11 11:10:17;;;;;;;10.90;10.10;;;23.80;99.90;;;;;;2631314;54;20149;-79
2021/09/11 11:12:49;;;;;;;10.20;9.27;;;23.80;99.90;;;;;;2631172;54;20129;-80
2021/09/11 11:15:20;;;;;;;9.95;9.00;;;23.70;99.90;;;;;;2631085;47;20158;-80
2021/09/11 11:17:51;;;;;;;10.77;9.88;;;23.50;99.90;;;;;;2639418;39;20810;-80
2021/09/11 11:20:28;;;;;;;9.55;8.75;;;23.50;99.90;;;;;;2633693;46;20157;-79
2021/09/11 11:23:00;;;;;;;9.38;8.57;;;23.90;99.90;;;;;;2631206;47;20136;-79
2021/09/11 11:25:35;;;;;;;9.85;9.13;;;24.00;99.90;;;;;;2631097;54;20132;-81
2021/09/11 11:28:05;;;;;;;10.82;9.75;;;23.90;99.90;;;;;;2633963;46;20192;-81
2021/09/11 11:30:34;;;;;;;10.43;9.52;;;23.80;99.90;;;;;;2631255;54;20160;-81
2021/09/11 11:33:04;;;;;;;10.20;9.20;;;24.10;99.90;;;;;;2631003;46;20149;-81
2021/09/11 11:35:35;;;;;;;8.52;7.82;;;24.50;99.90;;;;;;2631314;54;20157;-81
2021/09/11 11:38:04;;;;;;;9.77;8.80;;;24.80;99.90;;;;;;2631276;47;20161;-83
2021/09/11 11:40:33;;;;;;;9.18;8.48;;;25.10;99.90;;;;;;2630996;47;20155;-81
2021/09/11 11:43:04;;;;;;;10.70;9.70;;;24.40;99.90;;;;;;2631115;54;20133;-81
2021/09/11 11:45:34;;;;;;;9.32;8.63;;;24.00;99.90;;;;;;2631204;47;20141;-80
2021/09/11 11:48:07;;;;;;;8.65;7.95;;;24.60;99.90;;;;;;2631265;46;20203;-82
2021/09/11 11:50:40;;;;;;;9.30;8.50;;;25.40;99.90;;;;;;2631296;47;20131;-80
2021/09/11 11:53:13;;;;;;;6.55;6.05;;;25.70;99.90;;;;;;2631183;47;20836;-81
2021/09/11 11:55:45;;;;;;;7.93;7.22;;;24.90;99.90;;;;;;2631321;47;20172;-82
2021/09/11 11:58:15;;;;;;;9.45;8.65;;;24.60;99.90;;;;;;2631092;47;20184;-81
2021/09/11 12:00:46;;;;;;;8.63;8.02;;;24.30;99.90;;;;;;2631305;47;20217;-79
2021/09/11 12:03:37;;;;;;;8.88;7.78;;;23.80;99.90;;;;;;2630844;47;20133;-82
2021/09/11 12:06:09;;;;;;;8.50;7.72;;;23.70;99.90;;;;;;2630798;47;20134;-79
2021/09/11 12:08:40;;;;;;;8.82;8.02;;;23.90;99.90;;;;;;2631022;47;20166;-79
2021/09/11 12:11:18;;;;;;;8.48;7.78;;;23.90;99.90;;;;;;2631085;46;20157;-78
2021/09/11 12:13:48;;;;;;;7.57;7.07;;;24.00;99.90;;;;;;2630935;47;20137;-80
2021/09/11 12:16:18;;;;;;;9.25;8.43;;;24.70;99.90;;;;;;2630812;47;20145;-81
2021/09/11 12:18:47;;;;;;;9.13;8.38;;;24.70;99.90;;;;;;2630979;54;20187;-80
2021/09/11 12:21:20;;;;;;;6.65;6.07;;;24.40;99.90;;;;;;2630931;54;20184;-79
2021/09/11 12:23:50;;;;;;;8.13;7.32;;;24.00;99.90;;;;;;2630785;54;20201;-80
2021/09/11 12:26:29;;;;;;;8.60;7.80;;;23.90;99.90;;;;;;2630957;47;20181;-79
2021/09/11 12:29:07;;;;;;;9.30;8.40;;;23.70;99.90;;;;;;2640227;39;20849;-79
2021/09/11 12:31:39;;;;;;;8.38;7.65;;;23.70;99.90;;;;;;2630954;47;20149;-80
2021/09/11 12:34:15;;;;;;;6.90;6.40;;;23.90;99.90;;;;;;2630900;47;20145;-79
2021/09/11 12:36:47;;;;;;;7.18;6.50;;;24.10;99.90;;;;;;2630662;54;20133;-81
2021/09/11 12:39:28;;;;;;;7.18;6.55;;;24.10;99.90;;;;;;2630874;47;20192;-79
2021/09/11 12:42:00;;;;;;;8.38;7.78;;;24.20;99.90;;;;;;2630682;47;20149;-79
2021/09/11 12:44:32;;;;;;;8.18;6.80;;;24.10;99.90;;;;;;2630701;47;20157;-79
2021/09/11 12:47:03;;;;;;;8.27;7.57;;;24.20;99.90;;;;;;2630839;54;20200;-81
2021/09/11 12:49:33;;;;;;;6.22;5.82;;;24.30;99.90;;;;;;2630882;47;20173;-79
2021/09/11 12:52:07;;;;;;;5.75;5.35;;;24.20;99.90;;;;;;2630738;47;20145;-79